createdAt,value
2023-01-17T00:01:15.982Z,33.13
2023-01-17T00:02:49.149Z,34.90
2023-01-17T00:04:36.215Z,39.72
2023-01-17T00:06:28.427Z,31.80
2023-01-17T00:08:19.060Z,31.33
2023-01-17T00:09:56.759Z,28.63
2023-01-17T00:11:29.933Z,28.50
2023-01-17T00:13:04.566Z,27.65
2023-01-17T00:14:37.653Z,26.65
2023-01-17T00:16:12.423Z,25.00
2023-01-17T00:17:45.652Z,24.60
2023-01-17T00:19:36.099Z,24.38
2023-01-17T00:21:35.070Z,26.02
2023-01-17T00:23:26.827Z,24.13
2023-01-17T00:25:17.488Z,20.80
2023-01-17T00:27:04.607Z,21.10
2023-01-17T00:28:38.772Z,19.27
2023-01-17T00:30:11.964Z,18.08
2023-01-17T00:31:45.264Z,17.90
2023-01-17T00:33:17.350Z,16.25
2023-01-17T00:34:49.643Z,14.55
2023-01-17T00:36:21.640Z,15.10
2023-01-17T00:38:04.789Z,15.10
2023-01-17T00:39:36.718Z,14.70
2023-01-17T00:41:12.128Z,15.43
2023-01-17T00:42:44.122Z,17.15
2023-01-17T00:44:34.481Z,17.13
2023-01-17T00:46:25.525Z,16.77
2023-01-17T00:48:17.581Z,16.75
2023-01-17T00:50:08.187Z,17.65
2023-01-17T00:51:59.012Z,16.20
2023-01-17T00:53:49.675Z,20.00
2023-01-17T00:55:40.331Z,19.92
2023-01-17T00:57:31.086Z,19.40
2023-01-17T00:59:21.577Z,19.55
2023-01-17T01:01:12.674Z,19.02
2023-01-17T01:03:03.839Z,16.20
2023-01-17T01:04:56.056Z,16.35
2023-01-17T01:06:46.328Z,15.45
2023-01-17T01:08:39.592Z,16.95
2023-01-17T01:10:30.321Z,16.98
2023-01-17T01:12:20.903Z,16.38
2023-01-17T01:14:12.229Z,22.98
2023-01-17T01:16:02.938Z,20.50
2023-01-17T01:17:53.491Z,19.95
2023-01-17T01:19:44.824Z,20.73
2023-01-17T01:21:37.164Z,24.20
2023-01-17T01:23:27.706Z,24.65
2023-01-17T01:25:18.573Z,25.10
2023-01-17T01:27:09.131Z,23.40
2023-01-17T01:28:59.920Z,25.75
2023-01-17T01:30:51.045Z,28.20
2023-01-17T01:32:41.799Z,27.95
2023-01-17T01:34:14.930Z,27.23
2023-01-17T01:35:50.513Z,29.67
2023-01-17T01:37:25.549Z,29.70
2023-01-17T01:38:58.735Z,29.77
2023-01-17T01:40:31.849Z,27.73
2023-01-17T01:42:05.128Z,28.48
2023-01-17T01:43:45.488Z,25.65
2023-01-17T01:45:21.024Z,26.88
2023-01-17T01:46:54.209Z,27.33
2023-01-17T01:48:36.495Z,27.15
2023-01-17T01:50:13.681Z,25.52
2023-01-17T01:51:51.778Z,28.30
2023-01-17T01:53:26.205Z,30.60
2023-01-17T01:55:01.903Z,29.08
2023-01-17T01:56:35.924Z,31.52
2023-01-17T01:58:11.534Z,28.15
2023-01-17T01:59:50.241Z,28.02
2023-01-17T02:01:23.466Z,27.40
2023-01-17T02:02:59.895Z,28.33
2023-01-17T02:04:33.229Z,24.52
2023-01-17T02:06:16.780Z,22.92
2023-01-17T02:07:53.399Z,22.08
2023-01-17T02:09:28.878Z,24.35
2023-01-17T02:11:02.094Z,21.42
2023-01-17T02:12:36.025Z,23.92
2023-01-17T02:14:09.560Z,25.50
2023-01-17T02:15:53.457Z,24.33
2023-01-17T02:17:39.662Z,23.45
2023-01-17T02:19:35.357Z,22.77
2023-01-17T02:21:24.463Z,35.35
2023-01-17T02:23:24.100Z,30.30
2023-01-17T02:25:21.686Z,29.90
2023-01-17T02:27:01.060Z,25.58
2023-01-17T02:28:51.344Z,24.15
2023-01-17T02:30:38.358Z,23.48
2023-01-17T02:32:16.713Z,25.52
2023-01-17T02:33:59.443Z,23.52
2023-01-17T02:35:38.465Z,22.48
2023-01-17T02:37:18.216Z,21.65
2023-01-17T02:38:56.822Z,20.92
2023-01-17T02:40:35.595Z,24.13
2023-01-17T02:42:14.716Z,25.70
2023-01-17T02:43:50.859Z,23.98
2023-01-17T02:45:23.002Z,23.33
2023-01-17T02:46:59.404Z,25.42
2023-01-17T02:48:35.320Z,23.83
2023-01-17T02:50:12.775Z,20.00
2023-01-17T02:52:10.934Z,21.25
2023-01-17T02:53:57.704Z,21.77
2023-01-17T02:55:43.864Z,21.75
2023-01-17T02:57:32.980Z,20.77
2023-01-17T02:59:15.058Z,21.52
2023-01-17T03:01:00.901Z,20.75
2023-01-17T03:02:41.807Z,21.40
2023-01-17T03:04:21.743Z,22.58
2023-01-17T03:06:00.965Z,24.05
2023-01-17T03:07:34.235Z,21.73
2023-01-17T03:09:08.975Z,19.98
2023-01-17T03:10:43.090Z,19.30
2023-01-17T03:12:16.936Z,19.33
2023-01-17T03:13:50.611Z,21.52
2023-01-17T03:15:23.902Z,22.75
2023-01-17T03:16:57.130Z,30.02
2023-01-17T03:18:31.859Z,18.77
2023-01-17T03:20:06.445Z,21.23
2023-01-17T03:21:39.650Z,29.05
2023-01-17T03:23:12.860Z,28.02
2023-01-17T03:24:46.445Z,27.92
2023-01-17T03:26:20.080Z,26.27
2023-01-17T03:27:52.559Z,24.83
2023-01-17T03:29:25.773Z,23.38
2023-01-17T03:30:59.735Z,21.90
2023-01-17T03:32:32.543Z,23.55
2023-01-17T03:34:07.750Z,22.95
2023-01-17T03:35:40.845Z,24.95
2023-01-17T03:37:14.131Z,23.45
2023-01-17T03:38:47.384Z,24.35
2023-01-17T03:40:20.808Z,27.33
2023-01-17T03:41:53.972Z,27.70
2023-01-17T03:43:27.717Z,26.77
2023-01-17T03:45:00.987Z,27.63
2023-01-17T03:46:34.337Z,28.35
2023-01-17T03:48:07.068Z,28.73
2023-01-17T03:49:42.509Z,28.17
2023-01-17T03:51:16.072Z,25.95
2023-01-17T03:52:49.186Z,26.20
2023-01-17T03:54:22.409Z,25.77
2023-01-17T03:55:55.568Z,24.17
2023-01-17T03:57:29.399Z,24.70
2023-01-17T03:59:02.564Z,24.45
2023-01-17T04:00:36.972Z,25.58
2023-01-17T04:02:10.511Z,27.27
2023-01-17T04:03:44.029Z,48.63
2023-01-17T04:05:18.533Z,29.85
2023-01-17T04:06:50.644Z,28.70
2023-01-17T04:08:24.293Z,24.77
2023-01-17T04:09:58.252Z,26.13
2023-01-17T04:11:31.642Z,25.35
2023-01-17T04:13:04.848Z,23.10
2023-01-17T04:14:38.364Z,21.50
2023-01-17T04:16:14.726Z,22.60
2023-01-17T04:17:47.909Z,24.67
2023-01-17T04:19:21.816Z,22.15
2023-01-17T04:20:56.641Z,23.02
2023-01-17T04:22:31.694Z,22.33
2023-01-17T04:24:05.223Z,21.77
2023-01-17T04:25:38.419Z,38.60
2023-01-17T04:27:14.351Z,29.55
2023-01-17T04:28:46.874Z,39.35
2023-01-17T04:30:20.047Z,40.60
2023-01-17T04:31:53.808Z,28.92
2023-01-17T04:33:27.308Z,44.70
2023-01-17T04:35:00.774Z,35.55
2023-01-17T04:36:35.649Z,32.15
2023-01-17T04:38:08.735Z,32.30
2023-01-17T04:39:42.005Z,30.50
2023-01-17T04:41:14.536Z,26.70
2023-01-17T04:42:48.132Z,26.65
2023-01-17T04:44:21.518Z,25.00
2023-01-17T04:45:56.782Z,28.15
2023-01-17T04:47:30.227Z,26.90
2023-01-17T04:49:03.509Z,28.40
2023-01-17T04:50:36.753Z,25.52
2023-01-17T04:52:11.397Z,25.25
2023-01-17T04:53:44.889Z,22.80
2023-01-17T04:55:18.123Z,21.20
2023-01-17T04:56:51.241Z,23.80
2023-01-17T04:58:24.715Z,23.20
2023-01-17T04:59:57.905Z,23.05
2023-01-17T05:01:31.204Z,21.05
2023-01-17T05:03:04.558Z,18.27
2023-01-17T05:04:37.868Z,11.00
2023-01-17T05:06:11.301Z,11.80
2023-01-17T05:07:45.956Z,10.35
2023-01-17T05:09:19.049Z,5.60
2023-01-17T05:10:52.354Z,4.82
2023-01-17T05:12:25.553Z,3.35
2023-01-17T05:13:58.715Z,4.25
2023-01-17T05:15:31.982Z,3.40
2023-01-17T05:17:05.306Z,3.40
2023-01-17T05:18:38.605Z,3.83
2023-01-17T05:20:12.939Z,3.83
2023-01-17T05:21:46.040Z,3.53
2023-01-17T05:23:20.856Z,3.60
2023-01-17T05:24:54.181Z,4.07
2023-01-17T05:26:27.390Z,3.55
2023-01-17T05:28:01.097Z,3.92
2023-01-17T05:29:34.476Z,3.80
2023-01-17T05:31:07.804Z,3.55
2023-01-17T05:32:40.004Z,4.05
2023-01-17T05:34:13.360Z,3.85
2023-01-17T05:35:46.803Z,3.70
2023-01-17T05:37:19.957Z,4.18
2023-01-17T05:38:54.456Z,3.42
2023-01-17T05:40:30.871Z,3.78
2023-01-17T05:42:04.279Z,3.03
2023-01-17T05:43:37.483Z,4.13
2023-01-17T05:45:12.595Z,4.00
2023-01-17T05:46:45.736Z,4.32
2023-01-17T05:48:19.004Z,4.35
2023-01-17T05:49:52.071Z,4.35
2023-01-17T05:51:25.405Z,4.70
2023-01-17T05:53:00.600Z,4.18
2023-01-17T05:54:35.328Z,2.50
2023-01-17T05:56:08.833Z,4.72
2023-01-17T05:57:40.905Z,4.70
2023-01-17T05:59:14.457Z,4.53
2023-01-17T06:00:48.453Z,4.28
2023-01-17T06:02:21.925Z,3.65
2023-01-17T06:03:55.193Z,4.88
2023-01-17T06:05:29.226Z,5.07
2023-01-17T06:07:02.465Z,6.53
2023-01-17T06:08:35.648Z,5.78
2023-01-17T06:10:11.489Z,4.90
2023-01-17T06:11:44.604Z,4.80
2023-01-17T06:13:21.923Z,4.53
2023-01-17T06:14:55.320Z,4.88
2023-01-17T06:16:28.469Z,6.07
2023-01-17T06:18:06.209Z,4.60
2023-01-17T06:19:39.683Z,5.18
2023-01-17T06:21:12.846Z,4.65
2023-01-17T06:22:46.051Z,4.22
2023-01-17T06:24:19.247Z,3.95
2023-01-17T06:25:53.921Z,4.07
2023-01-17T06:27:27.550Z,4.57
2023-01-17T06:29:00.654Z,4.20
2023-01-17T06:30:33.798Z,3.90
2023-01-17T06:32:07.170Z,4.85
2023-01-17T06:33:40.565Z,4.18
2023-01-17T06:35:13.681Z,5.20
2023-01-17T06:36:46.896Z,5.97
2023-01-17T06:38:20.716Z,5.00
2023-01-17T06:39:54.015Z,3.97
2023-01-17T06:41:28.534Z,4.72
2023-01-17T06:43:02.612Z,4.97
2023-01-17T06:44:36.036Z,6.50
2023-01-17T06:46:09.390Z,5.70
2023-01-17T06:47:43.162Z,6.30
2023-01-17T06:49:16.619Z,6.15
2023-01-17T06:50:49.965Z,5.53
2023-01-17T06:52:23.148Z,6.43
2023-01-17T06:53:56.303Z,7.03
2023-01-17T06:55:30.795Z,7.15
2023-01-17T06:57:05.897Z,6.13
2023-01-17T06:58:38.993Z,4.65
2023-01-17T07:00:13.511Z,3.78
2023-01-17T07:01:46.782Z,5.25
2023-01-17T07:03:21.977Z,4.55
2023-01-17T10:47:39.801Z,2.17
2023-01-17T10:49:17.447Z,4.30
2023-01-17T10:50:58.465Z,4.60
2023-01-17T10:52:43.562Z,3.75
2023-01-17T10:54:33.469Z,5.82
2023-01-17T10:56:08.282Z,7.50
2023-01-17T10:57:43.464Z,9.70
2023-01-17T10:59:29.627Z,7.15
2023-01-17T11:01:06.847Z,6.57
2023-01-17T11:02:47.698Z,11.95
2023-01-17T11:04:23.111Z,7.25
2023-01-17T11:06:21.797Z,8.77
2023-01-17T11:07:59.274Z,7.07
2023-01-17T11:09:39.956Z,6.53
2023-01-17T11:11:13.240Z,8.43
2023-01-17T11:12:48.262Z,11.30
2023-01-17T11:14:25.527Z,9.25
2023-01-17T11:16:02.216Z,6.35
2023-01-17T11:17:37.995Z,6.07
2023-01-17T11:19:18.593Z,4.10
2023-01-17T11:20:51.964Z,5.07
2023-01-17T11:22:26.590Z,4.68
2023-01-17T11:24:11.283Z,3.45
2023-01-17T11:25:53.360Z,2.38
2023-01-17T11:27:29.223Z,2.13
2023-01-17T11:29:15.719Z,3.22
2023-01-17T11:30:54.799Z,2.30
2023-01-17T11:32:32.625Z,3.13
2023-01-17T11:34:17.800Z,3.10
2023-01-17T11:35:51.003Z,1.13
2023-01-17T11:37:26.529Z,3.65
2023-01-17T11:39:03.355Z,1.67
2023-01-17T11:40:41.791Z,1.95
2023-01-17T11:42:33.972Z,1.58
2023-01-17T11:44:23.416Z,1.85
2023-01-17T11:46:06.403Z,1.20
2023-01-17T11:47:39.636Z,1.73
2023-01-17T11:49:26.121Z,1.98
2023-01-17T11:51:01.087Z,1.15
2023-01-17T11:52:37.590Z,1.48
2023-01-17T11:54:19.564Z,1.65
2023-01-17T11:55:58.379Z,1.52
2023-01-17T11:57:34.246Z,1.48
2023-01-17T11:59:25.812Z,1.85
2023-01-17T12:01:06.191Z,1.60
2023-01-17T12:03:06.290Z,2.60
2023-01-17T12:04:44.496Z,1.45
2023-01-17T12:06:26.203Z,2.40
2023-01-17T12:08:10.312Z,1.73
2023-01-17T12:09:50.729Z,1.80
2023-01-17T12:11:36.021Z,2.80
2023-01-17T12:13:33.806Z,3.88
2023-01-17T12:15:23.352Z,3.92
2023-01-17T12:17:07.177Z,1.83
2023-01-17T12:18:49.848Z,5.45
2023-01-17T12:20:33.594Z,3.38
2023-01-17T12:22:25.145Z,4.28
2023-01-17T12:24:15.670Z,1.73
2023-01-17T12:26:02.021Z,2.80
2023-01-17T12:27:45.201Z,2.75
2023-01-17T12:29:44.232Z,1.60
2023-01-17T12:31:27.672Z,8.90
2023-01-17T12:33:15.808Z,2.60
2023-01-17T12:34:52.017Z,2.30
2023-01-17T12:36:39.040Z,1.70
2023-01-17T12:38:31.326Z,4.75
2023-01-17T12:40:18.236Z,2.95
2023-01-17T12:42:01.976Z,2.88
2023-01-17T12:43:38.065Z,3.38
2023-01-17T12:45:15.145Z,2.75
2023-01-17T12:46:55.343Z,3.25
2023-01-17T12:48:35.897Z,4.32
2023-01-17T12:50:22.444Z,6.82
2023-01-17T12:52:05.031Z,7.53
2023-01-17T12:53:43.879Z,2.80
2023-01-17T12:55:23.508Z,3.05
2023-01-17T12:57:02.223Z,2.67
2023-01-17T12:58:41.655Z,2.47
2023-01-17T13:00:23.078Z,2.85
2023-01-17T13:01:58.584Z,2.88
2023-01-17T13:03:42.987Z,3.83
2023-01-17T13:05:23.826Z,4.30
2023-01-17T13:07:07.716Z,2.72
2023-01-17T13:08:43.902Z,4.18
2023-01-17T13:10:32.052Z,2.55
2023-01-17T13:12:08.979Z,2.33
2023-01-17T13:13:43.414Z,3.45
2023-01-17T13:15:19.677Z,2.80
2023-01-17T13:16:57.951Z,7.45
2023-01-17T13:18:33.407Z,9.45
2023-01-17T13:20:17.496Z,6.82
2023-01-17T13:21:51.724Z,6.28
2023-01-17T13:23:31.938Z,8.48
2023-01-17T13:25:17.280Z,8.93
2023-01-17T13:27:08.005Z,5.57
2023-01-17T13:28:51.528Z,4.50
2023-01-17T13:30:37.607Z,2.88
2023-01-17T13:32:27.576Z,2.78
2023-01-17T13:34:24.881Z,2.65
2023-01-17T13:36:10.677Z,2.30
2023-01-17T13:38:08.422Z,3.25
2023-01-17T13:40:06.828Z,2.35
2023-01-17T13:41:50.435Z,3.05
2023-01-17T13:43:27.020Z,2.80
2023-01-17T13:45:00.179Z,5.15
2023-01-17T13:46:53.284Z,4.00
2023-01-17T13:48:37.421Z,5.03
2023-01-17T13:50:49.333Z,5.30
2023-01-17T13:52:35.951Z,4.25
2023-01-17T13:54:29.288Z,3.58
2023-01-17T13:56:13.421Z,5.18
2023-01-17T13:57:47.484Z,3.33
2023-01-17T13:59:30.703Z,3.30
2023-01-17T14:01:03.974Z,3.35
2023-01-17T14:02:39.057Z,4.32
2023-01-17T14:04:13.090Z,3.47
2023-01-17T14:05:56.733Z,2.72
2023-01-17T14:07:30.741Z,4.70
2023-01-17T14:09:12.148Z,6.05
2023-01-17T14:10:48.677Z,12.70
2023-01-17T14:12:31.888Z,7.10
2023-01-17T14:14:36.939Z,15.05
2023-01-17T14:16:28.327Z,14.88
2023-01-17T14:18:03.210Z,12.85
2023-01-17T14:19:37.885Z,12.23
2023-01-17T14:21:22.555Z,6.57
2023-01-17T14:22:58.855Z,6.38
2023-01-17T14:24:32.258Z,7.28
2023-01-17T14:26:27.955Z,6.63
2023-01-17T14:28:05.598Z,7.78
2023-01-17T14:29:49.583Z,5.65
2023-01-17T14:31:24.404Z,7.30
2023-01-17T14:33:15.991Z,7.47
2023-01-17T14:34:51.941Z,9.32
2023-01-17T14:36:29.716Z,12.43
2023-01-17T14:38:05.395Z,9.13
2023-01-17T14:39:46.233Z,11.23
2023-01-17T14:41:22.880Z,11.57
2023-01-17T14:43:03.161Z,25.15
2023-01-17T14:44:36.435Z,11.68
2023-01-17T14:46:18.611Z,10.80
2023-01-17T14:47:52.755Z,10.25
2023-01-17T14:49:27.161Z,9.38
2023-01-17T14:51:00.486Z,12.75
2023-01-17T14:52:33.613Z,12.43
2023-01-17T14:54:19.747Z,8.75
2023-01-17T14:55:57.519Z,8.88
2023-01-17T14:57:31.016Z,8.25
2023-01-17T14:59:17.106Z,6.78
2023-01-17T15:00:53.486Z,8.48
2023-01-17T15:02:27.095Z,11.27
2023-01-17T15:04:00.514Z,3.92
2023-01-17T15:05:34.540Z,5.70
2023-01-17T15:07:08.772Z,6.47
2023-01-17T15:08:42.260Z,7.78
2023-01-17T15:10:18.746Z,7.97
2023-01-17T15:11:53.355Z,12.13
2023-01-17T15:13:43.749Z,14.75
2023-01-17T15:15:35.722Z,10.60
2023-01-17T15:17:19.640Z,7.25
2023-01-17T15:18:53.993Z,5.25
2023-01-17T15:20:28.770Z,4.53
2023-01-17T15:22:02.402Z,3.30
2023-01-17T15:23:40.192Z,2.42
2023-01-17T15:25:15.445Z,4.28
2023-01-17T15:26:50.268Z,10.63
2023-01-17T15:28:23.882Z,9.38
2023-01-17T15:30:02.267Z,8.88
2023-01-17T15:31:45.542Z,15.35
2023-01-17T15:33:21.114Z,15.88
2023-01-17T15:34:55.315Z,22.73
2023-01-17T15:36:33.432Z,11.23
2023-01-17T15:38:06.806Z,10.20
2023-01-17T15:39:42.208Z,11.52
2023-01-17T15:41:18.338Z,12.20
2023-01-17T15:42:54.456Z,18.42
2023-01-17T15:44:49.707Z,17.20
2023-01-17T15:46:27.098Z,11.18
2023-01-17T15:48:38.026Z,12.52
2023-01-17T15:50:36.653Z,11.90
2023-01-17T15:52:17.764Z,10.10
2023-01-17T15:53:51.005Z,14.40
2023-01-17T15:55:27.586Z,13.38
2023-01-17T15:57:18.860Z,30.00
2023-01-17T15:58:52.150Z,13.40
2023-01-17T16:00:32.617Z,18.33
2023-01-17T16:02:27.746Z,19.55
2023-01-17T16:04:02.936Z,22.15
2023-01-17T16:05:43.947Z,21.58
2023-01-17T16:07:20.920Z,22.73
2023-01-17T16:08:55.023Z,46.58
2023-01-17T16:10:32.626Z,60.80
2023-01-17T16:12:05.995Z,46.90
2023-01-17T16:13:42.309Z,87.55
2023-01-17T16:15:18.353Z,68.25
2023-01-17T16:16:53.401Z,84.07
2023-01-17T16:18:26.862Z,156.40
2023-01-17T16:20:07.130Z,122.90
2023-01-17T16:21:45.626Z,47.88
2023-01-17T16:23:19.397Z,34.92
2023-01-17T16:24:52.807Z,29.13
2023-01-17T16:26:26.346Z,31.08
2023-01-17T16:28:01.479Z,32.28
2023-01-17T16:29:35.094Z,34.22
2023-01-17T16:31:08.759Z,38.47
2023-01-17T16:32:42.768Z,105.15
2023-01-17T16:34:16.195Z,48.72
2023-01-17T16:35:51.339Z,31.63
2023-01-17T16:37:24.531Z,39.85
2023-01-17T16:38:57.733Z,42.97
2023-01-17T16:40:33.904Z,47.22
2023-01-17T16:42:07.311Z,51.38
2023-01-17T16:43:40.633Z,52.70
2023-01-17T16:45:14.997Z,79.25
2023-01-17T16:46:48.364Z,97.50
2023-01-17T16:48:23.879Z,64.22
2023-01-17T16:49:57.167Z,62.15
2023-01-17T16:51:32.460Z,71.90
2023-01-17T16:53:05.934Z,71.85
2023-01-17T16:54:39.706Z,66.05
2023-01-17T16:56:15.414Z,63.95
2023-01-17T16:57:49.668Z,74.85
2023-01-17T16:59:23.262Z,77.65
2023-01-17T17:00:57.786Z,66.47
2023-01-17T17:02:31.346Z,83.80
2023-01-17T17:04:04.541Z,85.20
2023-01-17T17:05:38.356Z,76.78
2023-01-17T17:07:13.051Z,84.05
2023-01-17T17:08:46.340Z,63.67
2023-01-17T17:10:25.559Z,52.72
2023-01-17T17:11:58.926Z,44.83
2023-01-17T17:13:36.303Z,43.90
2023-01-17T17:15:10.865Z,51.80
2023-01-17T17:16:44.562Z,53.22
2023-01-17T17:18:19.312Z,43.10
2023-01-17T17:19:52.857Z,47.53
2023-01-17T17:21:27.113Z,56.50
2023-01-17T17:23:01.664Z,64.43
2023-01-17T17:24:35.165Z,63.42
2023-01-17T17:26:08.520Z,55.72
2023-01-17T17:27:41.775Z,67.00
2023-01-17T17:29:15.488Z,69.45
2023-01-17T17:30:48.770Z,158.18
2023-01-17T17:32:23.069Z,141.60
2023-01-17T17:33:59.640Z,161.13
2023-01-17T17:35:35.633Z,150.10
2023-01-17T17:37:10.523Z,143.68
2023-01-17T17:38:55.095Z,146.55
2023-01-17T17:40:28.766Z,117.75
2023-01-17T17:42:02.227Z,126.70
2023-01-17T17:43:41.222Z,124.32
2023-01-17T17:45:14.766Z,126.57
2023-01-17T17:46:49.689Z,123.03
2023-01-17T17:48:23.464Z,110.75
2023-01-17T17:49:57.345Z,119.47
2023-01-17T17:51:32.926Z,96.28
2023-01-17T17:53:06.024Z,95.90
2023-01-17T17:54:41.020Z,86.32
2023-01-17T17:56:14.525Z,73.38
2023-01-17T17:57:48.144Z,80.18
2023-01-17T17:59:22.665Z,79.60
2023-01-17T18:00:56.097Z,72.35
2023-01-17T18:02:29.493Z,72.20
2023-01-17T18:04:04.346Z,59.58
2023-01-17T18:05:37.701Z,10.77
2023-01-17T18:07:11.235Z,6.10
2023-01-17T18:08:44.937Z,4.55
2023-01-17T18:10:19.915Z,1.63
2023-01-17T18:11:53.339Z,2.47
2023-01-17T18:13:26.716Z,1.50
2023-01-17T18:15:00.343Z,1.92
2023-01-17T18:16:36.800Z,2.70
2023-01-17T18:18:10.228Z,3.05
2023-01-17T18:19:46.386Z,2.33
2023-01-17T18:21:23.944Z,0.98
2023-01-17T18:22:57.286Z,3.33
2023-01-17T18:24:30.876Z,2.63
2023-01-17T18:26:06.112Z,2.35
2023-01-17T18:27:40.772Z,4.40
2023-01-17T18:29:16.377Z,2.22
2023-01-17T18:30:50.100Z,2.67
2023-01-17T18:32:23.850Z,1.92
2023-01-17T18:33:58.864Z,1.70
2023-01-17T18:35:32.389Z,2.50
2023-01-17T18:37:06.125Z,2.13
2023-01-17T18:38:40.119Z,1.83
2023-01-17T18:40:14.004Z,2.05
2023-01-17T18:41:49.604Z,2.30
2023-01-17T18:43:22.951Z,2.30
2023-01-17T18:44:56.431Z,1.75
2023-01-17T18:46:32.411Z,2.70
2023-01-17T18:48:06.676Z,2.85
2023-01-17T18:49:40.174Z,3.00
2023-01-17T18:51:15.773Z,2.90
2023-01-17T18:52:49.381Z,3.50
2023-01-17T18:54:22.955Z,2.70
2023-01-17T18:55:57.649Z,3.13
2023-01-17T18:57:32.664Z,2.80
2023-01-17T18:59:08.007Z,5.30
2023-01-17T19:00:41.560Z,3.72
2023-01-17T19:02:14.824Z,2.60
2023-01-17T19:03:49.816Z,3.85
2023-01-17T19:05:24.937Z,5.95
2023-01-17T19:06:58.383Z,4.93
2023-01-17T19:08:33.696Z,4.97
2023-01-17T19:10:07.974Z,3.92
2023-01-17T19:11:43.455Z,3.83
2023-01-17T19:13:18.347Z,3.78
2023-01-17T19:14:51.911Z,2.92
2023-01-17T19:16:28.428Z,3.60
2023-01-17T19:18:02.950Z,2.95
2023-01-17T19:19:36.590Z,3.15
2023-01-17T19:21:13.225Z,1.23
2023-01-17T19:22:46.882Z,2.97
2023-01-17T19:24:20.649Z,2.90
2023-01-17T19:25:57.054Z,3.03
2023-01-17T19:27:30.508Z,3.00
2023-01-17T19:29:07.168Z,1.95
2023-01-17T19:30:41.437Z,2.20
2023-01-17T19:32:15.035Z,1.77
2023-01-17T19:33:50.279Z,2.33
2023-01-17T19:35:27.041Z,1.70
2023-01-17T19:37:00.533Z,1.48
2023-01-17T19:38:36.297Z,1.73
2023-01-17T19:40:11.484Z,1.70
2023-01-17T19:41:46.392Z,1.50
2023-01-17T19:43:21.126Z,1.98
2023-01-17T19:44:56.338Z,1.75
2023-01-17T19:46:30.319Z,1.70
2023-01-17T19:48:03.651Z,2.40
2023-01-17T19:49:37.350Z,2.35
2023-01-17T19:51:12.968Z,4.53
2023-01-17T19:52:46.303Z,6.32
2023-01-17T19:54:19.561Z,6.68
2023-01-17T19:55:53.119Z,4.72
2023-01-17T19:57:28.097Z,4.65
2023-01-17T19:59:02.376Z,5.78
2023-01-17T20:00:46.172Z,3.92
2023-01-17T20:02:20.478Z,4.40
2023-01-17T20:03:56.647Z,3.28
2023-01-17T20:05:33.929Z,3.08
2023-01-17T20:07:07.265Z,3.08
2023-01-17T20:08:40.938Z,3.33
2023-01-17T20:10:14.346Z,3.33
2023-01-17T20:11:49.201Z,3.53
2023-01-17T20:13:22.539Z,4.80
2023-01-17T20:14:55.940Z,3.70
2023-01-17T20:16:32.793Z,2.70
2023-01-17T20:18:06.504Z,2.97
2023-01-17T20:19:39.725Z,2.13
2023-01-17T20:21:17.284Z,1.50
2023-01-17T20:22:50.752Z,2.08
2023-01-17T20:24:24.240Z,1.67
2023-01-17T20:25:59.300Z,2.15
2023-01-17T20:27:32.728Z,2.40
2023-01-17T20:29:10.560Z,2.17
2023-01-17T20:30:45.435Z,2.20
2023-01-17T20:32:19.989Z,2.47
2023-01-17T20:33:55.113Z,1.70
2023-01-17T20:35:29.347Z,1.70
2023-01-17T20:37:02.524Z,1.90
2023-01-17T20:38:43.806Z,1.60
2023-01-17T20:40:17.610Z,2.40
2023-01-17T20:41:52.085Z,2.10
2023-01-17T20:43:25.210Z,1.65
2023-01-17T20:44:58.273Z,1.60
2023-01-17T20:46:35.551Z,1.90
2023-01-17T20:48:10.484Z,1.95
2023-01-17T20:49:43.727Z,1.77
2023-01-17T20:51:17.965Z,1.67
2023-01-17T20:52:51.346Z,2.17
2023-01-17T20:54:24.828Z,1.40
2023-01-17T20:55:58.351Z,0.63
2023-01-17T20:57:32.632Z,2.05
2023-01-17T20:59:09.050Z,1.25
2023-01-17T21:00:42.432Z,1.88
2023-01-17T21:02:15.900Z,1.35
2023-01-17T21:03:53.947Z,1.45
2023-01-17T21:05:27.686Z,2.03
2023-01-17T21:07:00.915Z,2.05
2023-01-17T21:08:36.796Z,1.23
2023-01-17T21:10:10.906Z,1.50
2023-01-17T21:11:44.178Z,1.35
2023-01-17T21:13:17.557Z,1.40
2023-01-17T21:14:51.170Z,1.45
2023-01-17T21:16:28.076Z,1.40
2023-01-17T21:18:01.301Z,1.50
2023-01-17T21:19:36.668Z,2.40
2023-01-17T21:21:12.626Z,1.00
2023-01-17T21:22:45.723Z,1.50
2023-01-17T21:24:20.161Z,1.83
2023-01-17T21:25:57.441Z,1.85
2023-01-17T21:27:30.585Z,1.55
2023-01-17T21:29:03.826Z,2.33
2023-01-17T21:30:37.516Z,1.83
2023-01-17T21:32:10.764Z,2.30
2023-01-17T21:33:43.852Z,2.28
2023-01-17T21:35:18.527Z,1.33
2023-01-17T21:36:52.039Z,1.80
2023-01-17T21:38:25.320Z,2.13
2023-01-17T21:40:00.188Z,1.92
2023-01-17T21:41:35.037Z,1.92
2023-01-17T21:43:08.271Z,1.92
2023-01-17T21:44:41.692Z,1.42
2023-01-17T21:46:14.881Z,1.58
2023-01-17T21:47:48.020Z,1.20
2023-01-17T21:49:21.211Z,3.15
2023-01-17T21:50:55.822Z,1.90
2023-01-17T21:52:28.012Z,2.25
2023-01-17T21:54:01.191Z,1.75
2023-01-17T21:55:51.873Z,1.65
2023-01-17T21:57:42.314Z,1.40
2023-01-17T21:59:15.444Z,2.30
2023-01-17T22:00:48.569Z,1.13
2023-01-17T22:02:21.880Z,1.20
2023-01-17T22:03:57.446Z,2.15
2023-01-17T22:05:30.525Z,1.60
2023-01-17T22:07:05.051Z,2.25
2023-01-17T22:08:38.953Z,1.42
2023-01-17T22:10:12.756Z,2.00
2023-01-17T22:11:45.871Z,1.73
2023-01-17T22:13:20.167Z,1.38
2023-01-17T22:14:53.824Z,1.45
2023-01-17T22:16:27.312Z,1.20
2023-01-17T22:18:00.575Z,2.53
2023-01-17T22:19:34.834Z,1.70
2023-01-17T22:21:09.823Z,0.98
2023-01-17T22:22:44.611Z,1.52
2023-01-17T22:24:19.815Z,1.30
2023-01-17T22:25:52.944Z,1.85
2023-01-17T22:27:26.108Z,1.55
2023-01-17T22:29:02.557Z,1.33
2023-01-17T22:30:36.009Z,2.20
2023-01-17T22:32:09.380Z,1.38
2023-01-17T22:33:44.687Z,1.65
2023-01-17T22:35:17.953Z,1.30
2023-01-17T22:36:51.052Z,1.73
2023-01-17T22:38:25.631Z,1.20
2023-01-17T22:40:00.519Z,1.55
2023-01-17T22:41:35.228Z,1.40
2023-01-17T22:43:08.677Z,1.85
2023-01-17T22:44:41.850Z,1.30
2023-01-17T22:46:18.175Z,1.67
2023-01-17T22:47:51.430Z,1.40
2023-01-17T22:49:24.588Z,1.83
2023-01-17T22:50:59.228Z,1.90
2023-01-17T22:52:33.790Z,1.10
2023-01-17T22:54:08.576Z,0.98
2023-01-17T22:55:41.745Z,1.30
2023-01-17T22:57:14.815Z,1.65
2023-01-17T22:58:48.992Z,1.30
2023-01-17T23:00:22.487Z,1.42
2023-01-17T23:01:55.610Z,1.88
2023-01-17T23:03:28.790Z,1.50
2023-01-17T23:05:02.071Z,1.20
2023-01-17T23:06:37.011Z,1.08
2023-01-17T23:08:10.433Z,2.05
2023-01-17T23:09:45.840Z,1.80
2023-01-17T23:11:43.570Z,2.00
2023-01-17T23:13:16.994Z,1.40
2023-01-17T23:15:07.225Z,1.50
2023-01-17T23:16:59.948Z,1.10
2023-01-17T23:18:50.672Z,1.30
2023-01-17T23:20:23.819Z,1.20
2023-01-17T23:22:16.729Z,1.25
2023-01-17T23:23:50.068Z,1.20
2023-01-17T23:25:24.562Z,0.73
2023-01-17T23:27:15.256Z,1.20
2023-01-17T23:28:48.616Z,1.08
2023-01-17T23:30:25.106Z,1.35
2023-01-17T23:31:58.541Z,1.02
2023-01-17T23:33:31.647Z,1.08
2023-01-17T23:35:05.145Z,1.27
2023-01-17T23:36:37.483Z,1.60
2023-01-17T23:38:29.983Z,1.40
2023-01-17T23:40:02.191Z,1.38
2023-01-17T23:41:54.427Z,1.25
2023-01-17T23:43:27.673Z,1.20
2023-01-17T23:44:59.815Z,1.15
2023-01-17T23:46:33.080Z,1.10
2023-01-17T23:48:09.870Z,1.52
2023-01-17T23:49:43.573Z,1.55
2023-01-17T23:51:16.656Z,1.30
2023-01-17T23:52:49.838Z,1.10
2023-01-17T23:54:23.036Z,1.15
2023-01-17T23:55:59.581Z,1.13
2023-01-17T23:57:34.082Z,1.25
2023-01-17T23:59:07.208Z,1.55
